CMB843 Details

Departure: Naval Station Rota (LERT)
Arrival: NAS Sigonella (LICZ)
Route: MGA2Z MGA UN851 MHN UM603 ORKUM M603 ALG M732 CAR M871 LIBRO LIBRO2N
Notes: USTRANSCOM CONTRACT FLIGHT


Current Weather Information
LERT 212200Z 27005KT CAVOK 18/16 Q1016 NOSIG
LICZ 212155Z 33003KT 9999 FEW020 14/14 Q1019